createdAt,value
2023-01-22T00:03:29.508Z,74.72
2023-01-22T00:08:52.107Z,74.80
2023-01-22T00:14:14.071Z,74.56
2023-01-22T00:19:38.280Z,74.55
2023-01-22T00:25:00.193Z,74.98
2023-01-22T00:30:24.411Z,74.46
2023-01-22T00:35:48.627Z,74.85
2023-01-22T00:41:10.884Z,74.70
2023-01-22T00:46:33.002Z,74.35
2023-01-22T00:51:55.096Z,74.47
2023-01-22T00:57:21.973Z,74.39
2023-01-22T01:03:02.915Z,73.98
2023-01-22T01:08:27.666Z,74.56
2023-01-22T01:13:50.865Z,75.15
2023-01-22T01:19:13.027Z,74.98
2023-01-22T01:24:36.620Z,74.66
2023-01-22T01:29:58.932Z,75.05
2023-01-22T01:35:22.138Z,74.74
2023-01-22T01:40:45.115Z,74.36
2023-01-22T01:46:16.891Z,74.53
2023-01-22T01:51:38.683Z,74.50
2023-01-22T01:57:05.311Z,74.56
2023-01-22T02:02:27.372Z,74.89
2023-01-22T02:07:49.146Z,74.34
2023-01-22T02:13:15.073Z,74.59
2023-01-22T02:18:36.727Z,75.28
2023-01-22T02:23:59.383Z,75.15
2023-01-22T02:29:21.782Z,74.76
2023-01-22T02:34:43.819Z,75.46
2023-01-22T02:40:06.518Z,75.49
2023-01-22T02:45:28.663Z,75.60
2023-01-22T02:50:50.455Z,76.02
2023-01-22T02:56:12.575Z,76.03
2023-01-22T03:01:34.564Z,76.09
2023-01-22T03:06:56.819Z,76.15
2023-01-22T03:12:19.847Z,76.07
2023-01-22T03:18:00.584Z,75.88
2023-01-22T03:23:27.644Z,76.02
2023-01-22T03:28:50.288Z,75.77
2023-01-22T03:34:12.050Z,75.88
2023-01-22T03:39:35.281Z,75.98
2023-01-22T03:44:58.310Z,76.24
2023-01-22T03:50:20.762Z,76.66
2023-01-22T03:55:42.167Z,76.46
2023-01-22T04:01:08.007Z,76.74
2023-01-22T04:06:30.841Z,76.68
2023-01-22T04:11:53.037Z,76.01
2023-01-22T04:17:15.060Z,76.12
2023-01-22T04:22:57.838Z,75.84
2023-01-22T04:28:20.387Z,75.76
2023-01-22T04:33:44.665Z,75.20
2023-01-22T04:39:11.862Z,75.03
2023-01-22T04:44:33.829Z,74.67
2023-01-22T04:49:55.971Z,74.64
2023-01-22T04:55:17.699Z,74.53
2023-01-22T05:01:01.702Z,74.30
2023-01-22T05:06:23.985Z,74.43
2023-01-22T05:11:46.079Z,74.30
2023-01-22T05:17:08.417Z,74.04
2023-01-22T05:22:30.025Z,74.36
2023-01-22T05:27:53.276Z,74.37
2023-01-22T05:33:35.705Z,74.16
2023-01-22T05:38:58.564Z,74.37
2023-01-22T05:44:21.965Z,74.13
2023-01-22T05:49:47.260Z,74.39
2023-01-22T05:55:10.418Z,74.27
2023-01-22T06:00:37.657Z,73.97
2023-01-22T06:06:11.949Z,74.18
2023-01-22T06:11:33.773Z,74.63
2023-01-22T06:16:55.480Z,74.17
2023-01-22T06:22:30.655Z,74.26
2023-01-22T06:27:55.739Z,74.48
2023-01-22T06:33:18.192Z,74.89
2023-01-22T06:38:39.998Z,74.61
2023-01-22T06:44:03.170Z,74.78
2023-01-22T06:49:25.222Z,75.13
2023-01-22T06:54:49.251Z,75.53
2023-01-22T07:00:12.228Z,75.67
2023-01-22T07:05:35.220Z,75.76
2023-01-22T07:10:57.052Z,75.90
2023-01-22T07:16:18.929Z,75.87
2023-01-22T07:21:42.815Z,75.97
2023-01-22T07:27:05.049Z,76.41
2023-01-22T07:32:27.077Z,76.22
2023-01-22T07:37:56.837Z,76.24
2023-01-22T07:43:18.564Z,76.16
2023-01-22T07:48:40.353Z,75.47
2023-01-22T07:54:02.030Z,75.92
2023-01-22T07:59:29.178Z,75.92
2023-01-22T08:04:51.193Z,76.11
2023-01-22T08:10:15.261Z,76.18
2023-01-22T08:15:37.924Z,76.20
2023-01-22T08:21:01.441Z,76.22
2023-01-22T08:26:29.130Z,75.92
2023-01-22T08:31:51.372Z,75.92
2023-01-22T08:37:12.830Z,75.61
2023-01-22T08:42:34.678Z,75.50
2023-01-22T08:47:58.929Z,75.56
2023-01-22T08:53:20.390Z,75.51
2023-01-22T08:58:42.121Z,75.24
2023-01-22T09:04:07.065Z,75.22
2023-01-22T09:09:28.752Z,75.17
2023-01-22T09:14:50.917Z,75.16
2023-01-22T09:20:12.896Z,75.28
2023-01-22T09:25:35.655Z,74.81
2023-01-22T09:30:58.162Z,74.55
2023-01-22T09:36:20.315Z,74.62
2023-01-22T09:41:46.935Z,74.81
2023-01-22T09:47:15.249Z,75.32
2023-01-22T09:52:38.483Z,74.93
2023-01-22T09:58:02.315Z,75.10
2023-01-22T10:03:39.147Z,75.21
2023-01-22T10:09:14.793Z,74.78
2023-01-22T10:14:36.493Z,75.27
2023-01-22T10:20:04.292Z,75.03
2023-01-22T10:25:26.598Z,75.07
2023-01-22T10:30:51.718Z,75.38
2023-01-22T10:36:14.839Z,75.40
2023-01-22T10:41:36.541Z,75.53
2023-01-22T10:47:18.558Z,75.60
2023-01-22T10:52:48.943Z,74.88
2023-01-22T10:58:16.534Z,75.05
2023-01-22T11:03:39.728Z,75.32
2023-01-22T11:09:15.562Z,75.19
2023-01-22T11:14:38.314Z,75.14
2023-01-22T11:20:10.622Z,74.79
2023-01-22T11:25:41.453Z,74.89
2023-01-22T11:31:23.094Z,74.60
2023-01-22T11:36:58.830Z,75.02
2023-01-22T11:42:23.640Z,74.93
2023-01-22T11:48:04.406Z,75.25
2023-01-22T11:53:59.642Z,75.38
2023-01-22T11:59:27.402Z,75.07
2023-01-22T12:05:18.684Z,75.43
2023-01-22T12:11:25.362Z,75.14
2023-01-22T12:16:58.374Z,75.56
2023-01-22T12:22:35.774Z,75.84
2023-01-22T12:28:03.034Z,76.15
2023-01-22T12:33:27.638Z,75.93
2023-01-22T12:39:11.940Z,76.59
2023-01-22T12:44:44.648Z,76.90
2023-01-22T12:50:20.547Z,77.30
2023-01-22T12:55:44.298Z,77.36
2023-01-22T13:01:24.123Z,77.58
2023-01-22T13:06:48.048Z,77.59
2023-01-22T13:12:22.022Z,78.00
2023-01-22T13:17:44.148Z,78.26
2023-01-22T13:23:07.623Z,78.88
2023-01-22T13:28:30.315Z,79.05
2023-01-22T13:33:53.448Z,78.86
2023-01-22T13:39:18.955Z,79.31
2023-01-22T13:44:42.731Z,79.44
2023-01-22T13:50:05.170Z,80.01
2023-01-22T13:55:28.056Z,80.20
2023-01-22T14:00:52.852Z,80.84
2023-01-22T14:06:15.364Z,80.54
2023-01-22T14:11:39.374Z,80.81
2023-01-22T14:17:01.743Z,80.56
2023-01-22T14:22:24.468Z,80.73
2023-01-22T14:27:48.565Z,80.93
2023-01-22T14:33:24.135Z,80.85
2023-01-22T14:38:46.807Z,80.58
2023-01-22T14:44:09.053Z,80.43
2023-01-22T14:49:31.190Z,80.46
2023-01-22T14:54:53.006Z,80.10
2023-01-22T15:00:17.915Z,80.23
2023-01-22T15:05:41.471Z,80.42
2023-01-22T15:11:05.703Z,80.28
2023-01-22T15:16:27.699Z,80.29
2023-01-22T15:21:49.681Z,80.54
2023-01-22T15:27:11.900Z,80.38
2023-01-22T15:32:34.029Z,80.71
2023-01-22T15:37:55.529Z,80.80
2023-01-22T15:43:17.185Z,81.13
2023-01-22T15:48:38.978Z,80.67
2023-01-22T15:54:03.353Z,80.76
2023-01-22T15:59:25.435Z,81.11
2023-01-22T16:04:47.204Z,81.27
2023-01-22T16:10:10.907Z,81.23
2023-01-22T16:15:34.407Z,80.44
2023-01-22T16:21:00.809Z,80.98
2023-01-22T16:26:26.066Z,81.22
2023-01-22T16:31:48.210Z,81.23
2023-01-22T16:37:09.780Z,81.19
2023-01-22T16:42:33.166Z,81.22
2023-01-22T16:47:56.595Z,80.89
2023-01-22T16:53:18.623Z,80.91
2023-01-22T16:58:40.802Z,80.85
2023-01-22T17:04:03.960Z,81.00
2023-01-22T17:09:28.620Z,81.34
2023-01-22T17:14:52.819Z,81.65
2023-01-22T17:20:17.565Z,81.68
2023-01-22T17:25:42.015Z,82.08
2023-01-22T17:31:09.452Z,81.97
2023-01-22T17:36:31.895Z,81.86
2023-01-22T17:41:53.645Z,82.13
2023-01-22T17:47:16.656Z,82.44
2023-01-22T17:52:39.111Z,82.31
2023-01-22T17:58:01.239Z,82.19
2023-01-22T18:03:23.474Z,81.91
2023-01-22T18:08:45.411Z,81.87
2023-01-22T18:14:11.367Z,81.85
2023-01-22T18:19:33.217Z,81.73
2023-01-22T18:24:54.946Z,82.13
2023-01-22T18:30:18.456Z,82.43
2023-01-22T18:35:58.953Z,82.02
2023-01-22T18:41:24.841Z,82.56
2023-01-22T18:46:48.540Z,81.90
2023-01-22T18:52:10.092Z,81.68
2023-01-22T18:57:54.763Z,81.84
2023-01-22T19:03:36.467Z,82.26
2023-01-22T19:09:04.746Z,82.00
2023-01-22T19:14:27.235Z,81.72
2023-01-22T19:19:49.062Z,82.18
2023-01-22T19:25:11.046Z,81.42
2023-01-22T19:30:33.355Z,81.21
2023-01-22T19:35:58.089Z,81.06
2023-01-22T19:41:20.974Z,80.37
2023-01-22T19:46:43.189Z,80.11
2023-01-22T19:52:05.021Z,80.50
2023-01-22T19:57:30.188Z,80.56
2023-01-22T20:02:55.198Z,80.55
2023-01-22T20:08:17.548Z,79.93
2023-01-22T20:13:41.875Z,80.07
2023-01-22T20:19:03.945Z,80.09
2023-01-22T20:24:29.497Z,79.95
2023-01-22T20:29:51.447Z,80.18
2023-01-22T20:35:18.974Z,80.12
2023-01-22T20:40:42.387Z,79.87
2023-01-22T20:46:11.556Z,79.89
2023-01-22T20:51:33.572Z,79.78
2023-01-22T20:56:55.731Z,79.86
2023-01-22T21:02:18.031Z,79.49
2023-01-22T21:07:40.094Z,79.46
2023-01-22T21:13:01.930Z,78.93
2023-01-22T21:18:23.984Z,79.05
2023-01-22T21:23:50.039Z,78.57
2023-01-22T21:29:15.377Z,78.66
2023-01-22T21:34:37.499Z,78.63
2023-01-22T21:39:59.165Z,78.69
2023-01-22T21:45:40.263Z,78.82
2023-01-22T21:51:02.857Z,78.85
2023-01-22T21:56:25.022Z,78.86
2023-01-22T22:01:46.970Z,79.21
2023-01-22T22:07:08.802Z,78.59
2023-01-22T22:12:33.874Z,78.09
2023-01-22T22:17:56.051Z,77.91
2023-01-22T22:23:17.979Z,77.80
2023-01-22T22:28:40.498Z,77.58
2023-01-22T22:34:02.877Z,78.10
2023-01-22T22:39:24.777Z,78.53
2023-01-22T22:44:46.493Z,78.76
2023-01-22T22:50:10.513Z,78.42
2023-01-22T22:55:32.516Z,78.57
2023-01-22T23:00:54.404Z,78.43
2023-01-22T23:06:19.612Z,77.97
2023-01-22T23:11:42.179Z,77.99
2023-01-22T23:17:04.899Z,78.05
2023-01-22T23:22:27.988Z,78.11
2023-01-22T23:27:49.962Z,78.63
2023-01-22T23:33:11.848Z,78.61
2023-01-22T23:38:33.926Z,78.73
2023-01-22T23:43:55.986Z,78.49
2023-01-22T23:49:17.528Z,78.42
2023-01-22T23:54:39.207Z,78.81
